Time;durP1;ratioP1;P1;durP2;ratioP2;P2;SDS_P1;SDS_P2;PMS_P1;PMS_P2;Temp;Humidity;BMP_temperature;BMP_pressure;BME280_temperature;BME280_humidity;BME280_pressure;Samples;Min_cycle;Max_cycle;Signal;HPM_P1;HPM_P2
2021/12/26 00:00:50;;;;;;;;;;;;;;;4.42;58.21;99358.53;4271065;33;19989;-86
2021/12/26 00:03:21;;;;;;;;;;;;;;;4.51;58.49;99361.37;4277469;33;19988;-87
2021/12/26 00:05:48;;;;;;;;;;;;;;;4.51;58.44;99356.25;4277241;33;20004;-87
2021/12/26 00:08:15;;;;;;;;;;;;;;;4.70;57.85;99356.84;4277244;33;19985;-87
2021/12/26 00:10:43;;;;;;;;;;;;;;;4.83;57.41;99348.72;4277396;33;20007;-88
2021/12/26 00:13:09;;;;;;;;;;;;;;;4.56;57.98;99353.84;4277069;33;20060;-88
2021/12/26 00:15:36;;;;;;;;;;;;;;;4.81;57.51;99352.91;4277737;33;19984;-88
2021/12/26 00:18:04;;;;;;;;;;;;;;;4.90;57.62;99350.66;4265296;33;20040;-87
2021/12/26 00:20:32;;;;;;;;;;;;;;;4.88;57.29;99347.16;4260116;33;20036;-85
2021/12/26 00:22:59;;;;;;;;;;;;;;;4.78;57.63;99350.25;4268142;33;19985;-85
2021/12/26 00:25:26;;;;;;;;;;;;;;;4.85;57.51;99352.19;4250832;33;20032;-87
2021/12/26 00:27:52;;;;;;;;;;;;;;;4.77;57.44;99349.41;4262840;33;20048;-87
2021/12/26 00:30:19;;;;;;;;;;;;;;;4.87;57.51;99360.81;4266078;33;20024;-88
2021/12/26 00:32:47;;;;;;;;;;;;;;;4.97;56.94;99351.69;4267188;33;20011;-88
2021/12/26 00:35:17;;;;;;;;;;;;;;;5.05;56.99;99353.69;4262504;33;19994;-86
2021/12/26 00:37:44;;;;;;;;;;;;;;;4.89;57.09;99354.03;4239108;33;19997;-86
2021/12/26 00:40:13;;;;;;;;;;;;;;;4.85;57.30;99359.88;4271346;33;19985;-89
2021/12/26 00:42:40;;;;;;;;;;;;;;;4.85;57.17;99352.19;4277115;33;19996;-83
2021/12/26 00:45:07;;;;;;;;;;;;;;;4.91;56.91;99362.63;4262438;33;20040;-87
2021/12/26 00:47:34;;;;;;;;;;;;;;;4.54;57.97;99365.75;4270056;33;19999;-86
2021/12/26 00:50:02;;;;;;;;;;;;;;;4.84;57.27;99355.59;4271704;33;19989;-88
2021/12/26 00:52:28;;;;;;;;;;;;;;;4.74;57.82;99354.44;4264956;33;20038;-86
2021/12/26 00:54:55;;;;;;;;;;;;;;;4.81;57.33;99360.63;4264594;33;20358;-86
2021/12/26 00:57:22;;;;;;;;;;;;;;;4.86;57.49;99365.06;4270403;33;20055;-89
2021/12/26 00:59:49;;;;;;;;;;;;;;;4.96;57.07;99370.50;4267870;33;20295;-87
2021/12/26 01:02:16;;;;;;;;;;;;;;;4.80;57.48;99374.25;4271222;33;19993;-88
2021/12/26 01:04:45;;;;;;;;;;;;;;;4.87;57.41;99363.38;4264504;33;20086;-87
2021/12/26 01:07:28;;;;;;;;;;;;;;;4.85;57.41;99368.47;4268226;33;20010;-87
2021/12/26 01:09:55;;;;;;;;;;;;;;;5.04;56.71;99372.47;4241142;33;20022;-87
2021/12/26 01:12:23;;;;;;;;;;;;;;;4.81;57.17;99365.75;4277398;33;19996;-87
2021/12/26 01:14:56;;;;;;;;;;;;;;;4.84;56.79;99358.16;4262582;33;19985;-88
2021/12/26 01:17:26;;;;;;;;;;;;;;;4.85;56.71;99362.44;4250651;33;20410;-88
2021/12/26 01:19:54;;;;;;;;;;;;;;;4.60;57.53;99369.37;4264332;33;19980;-88
2021/12/26 01:22:22;;;;;;;;;;;;;;;4.54;58.09;99371.75;4264583;33;20028;-85
2021/12/26 01:24:55;;;;;;;;;;;;;;;4.74;57.77;99368.94;4264622;33;20472;-88
2021/12/26 01:27:26;;;;;;;;;;;;;;;4.81;57.15;99381.13;4262315;33;20161;-86
2021/12/26 01:29:53;;;;;;;;;;;;;;;4.84;56.96;99381.22;4264243;33;19990;-87
2021/12/26 01:32:23;;;;;;;;;;;;;;;4.78;57.09;99386.16;4265811;33;20526;-86
2021/12/26 01:34:51;;;;;;;;;;;;;;;5.04;56.19;99382.72;4271025;33;19985;-88
2021/12/26 01:37:18;;;;;;;;;;;;;;;5.05;55.77;99387.03;4264187;33;19993;-89
2021/12/26 01:39:45;;;;;;;;;;;;;;;4.89;56.31;99382.25;4264416;33;20367;-87
2021/12/26 01:42:13;;;;;;;;;;;;;;;4.90;56.03;99382.28;4272345;33;20819;-88
2021/12/26 01:44:41;;;;;;;;;;;;;;;4.93;56.17;99384.06;4264115;33;19989;-85
2021/12/26 01:47:09;;;;;;;;;;;;;;;4.99;56.04;99381.72;4255364;33;20093;-86
2021/12/26 01:49:36;;;;;;;;;;;;;;;4.89;56.74;99385.69;4272380;33;20412;-87
2021/12/26 01:52:04;;;;;;;;;;;;;;;5.07;56.24;99375.13;4252868;33;20009;-88
2021/12/26 01:57:05;;;;;;;;;;;;;;;5.04;55.98;99380.16;4264086;33;20106;-88
2021/12/26 01:59:33;;;;;;;;;;;;;;;4.94;56.13;99382.38;4263940;33;19982;-87
2021/12/26 02:02:00;;;;;;;;;;;;;;;5.04;55.86;99369.91;4252870;33;19997;-88
2021/12/26 02:04:28;;;;;;;;;;;;;;;4.86;56.12;99374.47;4264044;33;20008;-87
2021/12/26 02:06:56;;;;;;;;;;;;;;;4.99;55.91;99370.59;4254266;33;19977;-87
2021/12/26 02:09:24;;;;;;;;;;;;;;;5.06;55.50;99368.25;4266165;33;20399;-87
2021/12/26 02:11:51;;;;;;;;;;;;;;;4.96;55.79;99371.34;4269906;33;20034;-88
2021/12/26 02:14:19;;;;;;;;;;;;;;;4.91;56.17;99367.75;4264107;33;20102;-86
2021/12/26 02:16:47;;;;;;;;;;;;;;;5.13;55.55;99365.03;4252974;33;20001;-84
2021/12/26 02:19:15;;;;;;;;;;;;;;;4.81;56.29;99365.75;4271608;33;20023;-85
2021/12/26 02:24:36;;;;;;;;;;;;;;;4.76;56.81;99369.88;4267954;33;20471;-87
2021/12/26 02:29:48;;;;;;;;;;;;;;;5.07;55.84;99372.56;4268453;33;20056;-88
2021/12/26 02:32:15;;;;;;;;;;;;;;;5.02;56.29;99374.09;4267329;33;20024;-87
2021/12/26 02:34:42;;;;;;;;;;;;;;;4.91;56.39;99372.88;4264220;33;20012;-89
2021/12/26 02:37:09;;;;;;;;;;;;;;;4.91;56.03;99372.88;4263388;33;20062;-90
2021/12/26 02:39:36;;;;;;;;;;;;;;;4.72;57.02;99368.87;4264134;33;19993;-90
2021/12/26 02:42:03;;;;;;;;;;;;;;;4.71;57.21;99373.97;4264074;33;20005;-91
2021/12/26 02:44:30;;;;;;;;;;;;;;;4.94;56.45;99373.00;4263448;33;20011;-87
2021/12/26 02:46:57;;;;;;;;;;;;;;;4.79;57.78;99375.09;4271002;33;20506;-90
2021/12/26 02:49:24;;;;;;;;;;;;;;;5.00;56.89;99373.19;4271628;33;19985;-85
2021/12/26 02:51:51;;;;;;;;;;;;;;;5.19;56.37;99374.59;4263760;33;20046;-88
2021/12/26 02:54:18;;;;;;;;;;;;;;;5.09;56.95;99373.47;4263696;33;20001;-88
2021/12/26 02:56:45;;;;;;;;;;;;;;;5.30;56.12;99377.50;4259703;33;20007;-88
2021/12/26 02:59:12;;;;;;;;;;;;;;;5.30;55.76;99374.94;4263813;33;19977;-89
2021/12/26 03:01:39;;;;;;;;;;;;;;;5.41;55.56;99380.38;4263844;33;20361;-87
2021/12/26 03:04:08;;;;;;;;;;;;;;;5.53;55.22;99371.34;4261282;33;19981;-85
2021/12/26 03:07:00;;;;;;;;;;;;;;;5.63;54.64;99376.72;4263716;33;20017;-85
2021/12/26 03:09:30;;;;;;;;;;;;;;;5.60;55.23;99383.50;4269446;33;19980;-85
2021/12/26 03:11:57;;;;;;;;;;;;;;;5.79;53.84;99379.78;4251030;33;20287;-84
2021/12/26 03:14:24;;;;;;;;;;;;;;;5.75;53.68;99377.09;4265398;33;20425;-83
2021/12/26 03:16:52;;;;;;;;;;;;;;;5.69;53.55;99387.19;4258267;33;19993;-85
2021/12/26 03:19:19;;;;;;;;;;;;;;;5.86;53.03;99380.81;4265346;33;19993;-86
2021/12/26 03:21:49;;;;;;;;;;;;;;;5.59;53.72;99374.09;4263783;33;20041;-86
2021/12/26 03:24:16;;;;;;;;;;;;;;;5.78;53.86;99377.16;4266314;33;20107;-90
2021/12/26 03:26:43;;;;;;;;;;;;;;;5.46;54.92;99383.97;4257017;33;20391;-88
2021/12/26 03:29:11;;;;;;;;;;;;;;;5.74;53.96;99390.72;4265621;33;20004;-86
2021/12/26 03:31:41;;;;;;;;;;;;;;;5.69;54.11;99382.03;4270145;33;20473;-87
2021/12/26 03:34:08;;;;;;;;;;;;;;;5.90;53.79;99372.34;4252161;33;20276;-89
2021/12/26 03:36:35;;;;;;;;;;;;;;;5.73;54.44;99373.59;4264081;33;20012;-85
2021/12/26 03:39:03;;;;;;;;;;;;;;;5.73;54.08;99371.88;4270737;33;20041;-87
2021/12/26 03:41:29;;;;;;;;;;;;;;;5.60;54.65;99368.09;4252064;33;19985;-88
2021/12/26 03:43:57;;;;;;;;;;;;;;;5.86;54.04;99365.38;4263358;33;20004;-86
2021/12/26 03:46:23;;;;;;;;;;;;;;;5.81;53.93;99377.25;4263829;33;20000;-90
2021/12/26 03:48:51;;;;;;;;;;;;;;;6.04;53.23;99378.78;4269912;33;20504;-86
2021/12/26 03:51:20;;;;;;;;;;;;;;;5.68;54.08;99365.78;4255044;33;20995;-86
2021/12/26 03:53:47;;;;;;;;;;;;;;;5.63;54.39;99361.34;4263217;33;20048;-88
2021/12/26 03:56:15;;;;;;;;;;;;;;;5.72;54.10;99361.59;4251647;33;20008;-90
2021/12/26 03:58:45;;;;;;;;;;;;;;;5.85;52.62;99363.66;4252264;33;19981;-89
2021/12/26 04:01:12;;;;;;;;;;;;;;;5.74;53.01;99365.94;4263338;33;20028;-85
2021/12/26 04:03:39;;;;;;;;;;;;;;;5.93;52.10;99369.03;4263022;33;19986;-88
2021/12/26 04:06:06;;;;;;;;;;;;;;;6.09;50.98;99367.75;4263255;33;19977;-88
2021/12/26 04:08:34;;;;;;;;;;;;;;;5.87;52.05;99367.16;4265058;33;19982;-83
2021/12/26 04:11:01;;;;;;;;;;;;;;;5.92;51.90;99365.56;4257901;33;19993;-87
2021/12/26 04:13:29;;;;;;;;;;;;;;;6.04;51.99;99365.91;4263018;33;20378;-88
2021/12/26 04:15:56;;;;;;;;;;;;;;;6.25;51.62;99365.62;4262968;33;20049;-89
2021/12/26 04:18:25;;;;;;;;;;;;;;;6.01;52.30;99376.13;4264308;33;20044;-92
2021/12/26 04:20:52;;;;;;;;;;;;;;;5.95;52.77;99368.25;4264798;33;20001;-92
2021/12/26 04:23:20;;;;;;;;;;;;;;;6.11;51.68;99361.81;4264836;33;19985;-88
2021/12/26 04:25:47;;;;;;;;;;;;;;;6.22;51.71;99374.94;4268328;33;19993;-87
2021/12/26 04:28:17;;;;;;;;;;;;;;;6.11;51.49;99376.37;4269084;33;19985;-87
2021/12/26 04:30:44;;;;;;;;;;;;;;;6.15;51.83;99378.19;4264875;33;19989;-87
2021/12/26 04:33:11;;;;;;;;;;;;;;;6.30;51.31;99376.00;4264802;33;20045;-86
2021/12/26 04:35:39;;;;;;;;;;;;;;;6.13;51.89;99375.59;4253030;33;20017;-88
2021/12/26 04:38:08;;;;;;;;;;;;;;;6.08;52.04;99391.69;4265295;33;20515;-87
2021/12/26 04:40:34;;;;;;;;;;;;;;;6.20;51.14;99397.16;4272173;33;19985;-88
2021/12/26 04:43:03;;;;;;;;;;;;;;;6.23;50.98;99394.69;4264650;33;19986;-87
2021/12/26 04:45:30;;;;;;;;;;;;;;;6.32;50.56;99397.50;4249470;33;20446;-87
2021/12/26 04:48:02;;;;;;;;;;;;;;;6.21;50.65;99393.75;4237885;33;19998;-90
2021/12/26 04:50:31;;;;;;;;;;;;;;;6.29;50.79;99397.41;4242442;33;20010;-88
2021/12/26 04:52:58;;;;;;;;;;;;;;;6.09;51.62;99408.84;4243131;33;20041;-88
2021/12/26 04:55:26;;;;;;;;;;;;;;;6.12;51.48;99414.06;4237711;33;20012;-89
2021/12/26 04:57:53;;;;;;;;;;;;;;;6.18;50.57;99419.38;4226407;33;19993;-91
2021/12/26 05:00:21;;;;;;;;;;;;;;;6.15;49.99;99403.88;4231432;33;19987;-91
2021/12/26 05:02:49;;;;;;;;;;;;;;;6.08;50.51;99407.13;4236253;33;19997;-89
2021/12/26 05:05:17;;;;;;;;;;;;;;;6.07;50.72;99410.53;4242931;33;19996;-89
2021/12/26 05:07:44;;;;;;;;;;;;;;;5.97;49.40;99415.41;4268004;33;20015;-91
2021/12/26 05:10:12;;;;;;;;;;;;;;;6.07;48.96;99420.81;4286742;33;19996;-88
2021/12/26 05:12:39;;;;;;;;;;;;;;;5.93;50.42;99416.13;4281593;33;20335;-90
2021/12/26 05:15:08;;;;;;;;;;;;;;;6.16;50.25;99421.03;4293147;33;20373;-89
2021/12/26 05:17:36;;;;;;;;;;;;;;;6.08;49.27;99419.97;4293391;33;19984;-89
2021/12/26 05:20:03;;;;;;;;;;;;;;;6.20;49.28;99428.87;4293626;33;20393;-88
2021/12/26 05:22:31;;;;;;;;;;;;;;;6.10;48.16;99436.31;4281499;33;20097;-88
2021/12/26 05:24:58;;;;;;;;;;;;;;;6.23;48.53;99422.94;4293755;33;20104;-84
2021/12/26 05:27:25;;;;;;;;;;;;;;;5.99;49.46;99438.56;4293579;33;19985;-88
2021/12/26 05:29:52;;;;;;;;;;;;;;;6.16;48.60;99432.19;4280983;33;19989;-89
2021/12/26 05:32:19;;;;;;;;;;;;;;;6.36;46.46;99440.44;4288925;33;20018;-86
2021/12/26 05:34:46;;;;;;;;;;;;;;;6.09;46.89;99440.53;4280712;33;20033;-89
2021/12/26 05:37:13;;;;;;;;;;;;;;;6.30;46.09;99447.97;4278462;33;20008;-90
2021/12/26 05:39:42;;;;;;;;;;;;;;;6.20;46.53;99453.72;4264739;33;20032;-88
2021/12/26 05:42:15;;;;;;;;;;;;;;;5.98;47.59;99453.09;4270035;33;19977;-89
2021/12/26 05:44:44;;;;;;;;;;;;;;;6.03;46.27;99451.53;4265490;33;20068;-88
2021/12/26 05:47:11;;;;;;;;;;;;;;;6.05;45.78;99451.56;4278151;33;20021;-89
2021/12/26 05:49:41;;;;;;;;;;;;;;;6.08;46.70;99458.50;4274912;33;19992;-90
2021/12/26 05:52:09;;;;;;;;;;;;;;;5.88;47.49;99461.34;4278739;33;19981;-91
2021/12/26 05:54:38;;;;;;;;;;;;;;;5.90;46.47;99454.53;4281931;33;20052;-89
2021/12/26 05:57:05;;;;;;;;;;;;;;;6.13;45.85;99462.09;4290999;33;20000;-87
2021/12/26 05:59:32;;;;;;;;;;;;;;;6.10;46.01;99462.00;4285120;33;19988;-86
2021/12/26 06:01:59;;;;;;;;;;;;;;;5.85;47.26;99461.25;4291877;33;20027;-86
2021/12/26 06:04:26;;;;;;;;;;;;;;;5.86;47.24;99473.28;4273410;33;20001;-86
2021/12/26 06:06:53;;;;;;;;;;;;;;;5.83;45.55;99468.91;4282317;33;19985;-84
2021/12/26 06:09:20;;;;;;;;;;;;;;;6.05;45.00;99470.44;4283220;33;19985;-88
2021/12/26 06:11:48;;;;;;;;;;;;;;;5.78;45.14;99478.19;4288608;33;20052;-86
2021/12/26 06:14:15;;;;;;;;;;;;;;;6.10;43.94;99483.41;4278512;33;20023;-89
2021/12/26 06:16:43;;;;;;;;;;;;;;;6.07;44.06;99482.47;4291882;33;19998;-86
2021/12/26 06:19:11;;;;;;;;;;;;;;;6.07;42.25;99477.31;4293493;33;20004;-87
2021/12/26 06:21:40;;;;;;;;;;;;;;;5.79;42.54;99485.06;4257675;33;20004;-86
2021/12/26 06:24:08;;;;;;;;;;;;;;;5.94;43.07;99487.25;4252864;33;20010;-89
2021/12/26 06:26:43;;;;;;;;;;;;;;;5.57;43.80;99480.97;4257354;33;19977;-86
2021/12/26 06:29:10;;;;;;;;;;;;;;;5.63;46.54;99484.56;4249751;33;20010;-89
2021/12/26 06:31:43;;;;;;;;;;;;;;;5.75;44.39;99497.78;4238651;33;20064;-88
2021/12/26 06:34:12;;;;;;;;;;;;;;;5.98;41.84;99494.22;4256189;33;20072;-89
2021/12/26 06:36:42;;;;;;;;;;;;;;;5.95;41.11;99501.81;4256285;33;19985;-86
2021/12/26 06:39:13;;;;;;;;;;;;;;;5.77;41.90;99493.53;4252375;33;20034;-87
2021/12/26 06:41:46;;;;;;;;;;;;;;;5.95;43.20;99499.25;4258378;33;20005;-84
2021/12/26 06:44:15;;;;;;;;;;;;;;;6.00;41.02;99505.41;4234710;33;19985;-86
2021/12/26 06:46:44;;;;;;;;;;;;;;;6.20;39.88;99508.53;4250392;33;20010;-88
2021/12/26 06:49:12;;;;;;;;;;;;;;;6.07;41.43;99510.72;4256700;33;20060;-84
2021/12/26 06:51:38;;;;;;;;;;;;;;;6.12;43.44;99511.72;4247744;33;20009;-84
2021/12/26 06:54:05;;;;;;;;;;;;;;;6.01;43.49;99514.84;4247544;33;19993;-85
2021/12/26 06:56:34;;;;;;;;;;;;;;;6.18;41.79;99517.03;4253298;33;19990;-86
2021/12/26 06:59:01;;;;;;;;;;;;;;;6.10;39.86;99508.25;4277489;33;20004;-84
2021/12/26 07:01:28;;;;;;;;;;;;;;;6.03;40.20;99518.34;4259384;33;20012;-86
2021/12/26 07:03:55;;;;;;;;;;;;;;;6.24;37.96;99512.06;4274353;33;20439;-83
2021/12/26 07:06:22;;;;;;;;;;;;;;;6.11;38.89;99515.13;4277957;33;19986;-86
2021/12/26 07:08:50;;;;;;;;;;;;;;;6.16;40.69;99528.94;4257772;33;20020;-86
2021/12/26 07:11:17;;;;;;;;;;;;;;;6.26;38.96;99524.12;4262714;33;20005;-87
2021/12/26 07:13:44;;;;;;;;;;;;;;;6.17;40.29;99530.72;4262952;33;19993;-84
2021/12/26 07:16:11;;;;;;;;;;;;;;;6.22;40.02;99529.13;4249529;33;20016;-85
2021/12/26 07:18:38;;;;;;;;;;;;;;;6.09;41.61;99532.19;4251747;33;20041;-86
2021/12/26 07:21:05;;;;;;;;;;;;;;;5.93;41.22;99526.59;4263988;33;20513;-83
2021/12/26 07:23:33;;;;;;;;;;;;;;;6.00;39.84;99531.09;4253547;33;19997;-86
2021/12/26 07:26:00;;;;;;;;;;;;;;;6.37;40.35;99533.84;4262842;33;20041;-85
2021/12/26 07:28:27;;;;;;;;;;;;;;;6.04;41.43;99545.78;4256948;33;20376;-81
2021/12/26 07:30:56;;;;;;;;;;;;;;;5.98;43.06;99530.16;4266781;33;20008;-83
2021/12/26 07:33:26;;;;;;;;;;;;;;;5.96;43.29;99539.53;4264387;33;20045;-82
2021/12/26 07:35:54;;;;;;;;;;;;;;;5.91;44.26;99532.50;4260912;33;19985;-77
2021/12/26 07:38:27;;;;;;;;;;;;;;;5.79;44.82;99548.41;4272753;33;20057;-81
2021/12/26 07:41:14;;;;;;;;;;;;;;;5.89;43.19;99535.00;4271249;33;20006;-81
2021/12/26 07:43:41;;;;;;;;;;;;;;;5.89;43.50;99536.69;4262346;33;19985;-81
2021/12/26 07:46:16;;;;;;;;;;;;;;;6.04;44.13;99537.19;4263426;33;19981;-83
2021/12/26 07:48:45;;;;;;;;;;;;;;;5.98;44.53;99543.03;4244727;33;20441;-80
2021/12/26 07:51:14;;;;;;;;;;;;;;;6.05;43.45;99542.38;4261083;33;19993;-83
2021/12/26 07:53:58;;;;;;;;;;;;;;;6.19;42.08;99544.47;4251774;33;20096;-78
2021/12/26 07:56:40;;;;;;;;;;;;;;;6.47;40.65;99552.13;4260931;33;19985;-79
2021/12/26 07:59:21;;;;;;;;;;;;;;;6.37;41.12;99559.53;4252354;33;20002;-83
2021/12/26 08:02:04;;;;;;;;;;;;;;;6.20;39.91;99561.63;4253824;33;19993;-81
2021/12/26 08:04:32;;;;;;;;;;;;;;;6.31;39.97;99555.09;4261639;33;20034;-81
2021/12/26 08:07:01;;;;;;;;;;;;;;;6.44;40.88;99556.31;4262449;33;20001;-82
2021/12/26 08:09:28;;;;;;;;;;;;;;;6.61;39.65;99554.22;4254265;33;19989;-84
2021/12/26 08:11:56;;;;;;;;;;;;;;;6.40;38.70;99554.50;4261113;33;20019;-83
2021/12/26 08:14:22;;;;;;;;;;;;;;;6.47;36.08;99556.41;4261373;33;20781;-85
2021/12/26 08:16:49;;;;;;;;;;;;;;;6.50;37.15;99549.63;4260631;33;19993;-81
2021/12/26 08:19:16;;;;;;;;;;;;;;;6.70;36.02;99544.16;4255305;33;20028;-80
2021/12/26 08:21:43;;;;;;;;;;;;;;;6.79;35.32;99544.41;4260326;33;19992;-84
2021/12/26 08:24:10;;;;;;;;;;;;;;;6.75;36.79;99545.16;4260458;33;20015;-82
2021/12/26 08:26:38;;;;;;;;;;;;;;;6.58;37.40;99549.88;4262782;33;20536;-88
2021/12/26 08:29:04;;;;;;;;;;;;;;;6.84;36.17;99547.97;4241900;33;20005;-82
2021/12/26 08:31:31;;;;;;;;;;;;;;;6.60;36.15;99548.19;4249618;33;20055;-85
2021/12/26 08:33:58;;;;;;;;;;;;;;;6.79;35.38;99554.69;4245433;33;19977;-84
2021/12/26 08:36:25;;;;;;;;;;;;;;;6.88;35.33;99557.50;4252029;33;20071;-85
2021/12/26 08:38:52;;;;;;;;;;;;;;;7.03;36.62;99559.63;4252142;33;20001;-82
2021/12/26 08:41:21;;;;;;;;;;;;;;;6.95;37.15;99567.13;4273379;33;20379;-84
2021/12/26 08:43:48;;;;;;;;;;;;;;;7.12;34.93;99564.16;4260642;33;19993;-86
2021/12/26 08:46:15;;;;;;;;;;;;;;;7.05;36.14;99569.94;4267958;33;19993;-83
2021/12/26 08:48:42;;;;;;;;;;;;;;;6.98;34.68;99568.91;4269549;33;20056;-87
2021/12/26 08:51:09;;;;;;;;;;;;;;;7.12;36.30;99569.28;4241862;33;879109;-86
2021/12/26 08:53:35;;;;;;;;;;;;;;;7.06;36.15;99570.00;4277619;33;20036;-82
2021/12/26 08:56:04;;;;;;;;;;;;;;;7.14;35.88;99565.91;4284899;33;20681;-85
2021/12/26 08:58:30;;;;;;;;;;;;;;;7.05;35.06;99562.22;4282073;33;20398;-85
2021/12/26 09:00:57;;;;;;;;;;;;;;;7.18;34.77;99562.59;4256053;33;20045;-86
2021/12/26 09:03:24;;;;;;;;;;;;;;;7.25;35.44;99555.88;4268681;33;20000;-91
2021/12/26 09:05:51;;;;;;;;;;;;;;;7.06;33.84;99559.69;4275388;33;20036;-87
2021/12/26 09:08:18;;;;;;;;;;;;;;;7.10;34.06;99555.50;4274037;33;20391;-87
2021/12/26 09:10:45;;;;;;;;;;;;;;;7.26;33.51;99552.47;4269766;33;19999;-82
2021/12/26 09:13:12;;;;;;;;;;;;;;;7.16;34.85;99545.34;4274823;33;20753;-82
2021/12/26 09:15:48;;;;;;;;;;;;;;;7.15;34.68;99543.63;1417425;33;10029064;-82
2021/12/26 09:18:15;;;;;;;;;;;;;;;7.39;33.57;99544.22;3035924;33;10012041;-82
2021/12/26 09:20:42;;;;;;;;;;;;;;;7.46;35.50;99546.09;4253646;33;20006;-81
2021/12/26 09:23:09;;;;;;;;;;;;;;;7.17;34.08;99539.38;4258289;33;19993;-84
2021/12/26 09:25:36;;;;;;;;;;;;;;;7.29;34.54;99547.41;4261998;33;19997;-81
2021/12/26 09:28:03;;;;;;;;;;;;;;;7.23;33.71;99542.09;4249634;33;20322;-81
2021/12/26 09:30:30;;;;;;;;;;;;;;;7.23;33.17;99542.09;4260623;33;20003;-82
2021/12/26 09:32:57;;;;;;;;;;;;;;;7.30;33.41;99538.84;4249550;33;19989;-82
2021/12/26 09:35:24;;;;;;;;;;;;;;;7.43;33.91;99540.91;4250970;33;19981;-82
2021/12/26 09:37:50;;;;;;;;;;;;;;;7.24;32.97;99533.53;4248050;33;19994;-82
2021/12/26 09:40:18;;;;;;;;;;;;;;;7.45;32.20;99539.19;4249973;33;20005;-81
2021/12/26 09:42:45;;;;;;;;;;;;;;;7.48;33.05;99541.00;4255237;33;19989;-82
2021/12/26 09:45:12;;;;;;;;;;;;;;;7.48;32.94;99537.53;4250037;33;20000;-82
2021/12/26 09:47:40;;;;;;;;;;;;;;;7.27;35.88;99533.59;4247858;33;20328;-80
2021/12/26 09:50:07;;;;;;;;;;;;;;;7.63;31.64;99535.34;4254378;33;19985;-82
2021/12/26 09:52:34;;;;;;;;;;;;;;;7.56;33.14;99542.06;4248135;33;20050;-82
2021/12/26 09:55:01;;;;;;;;;;;;;;;7.67;33.70;99534.56;4237316;33;20353;-82
2021/12/26 09:57:29;;;;;;;;;;;;;;;7.56;33.70;99520.56;4248541;33;19993;-88
2021/12/26 09:59:56;;;;;;;;;;;;;;;7.79;33.24;99524.53;4253995;33;19992;-87
2021/12/26 10:02:23;;;;;;;;;;;;;;;8.13;32.96;99525.22;4251159;33;20337;-87
2021/12/26 10:04:51;;;;;;;;;;;;;;;8.14;32.24;99521.84;4248828;33;20069;-86
2021/12/26 10:07:22;;;;;;;;;;;;;;;8.29;31.80;99521.25;4255412;33;20069;-85
2021/12/26 10:09:49;;;;;;;;;;;;;;;8.43;31.08;99519.00;4255536;33;20026;-84
2021/12/26 10:12:17;;;;;;;;;;;;;;;8.64;30.70;99514.22;4259693;33;19989;-84
2021/12/26 10:14:46;;;;;;;;;;;;;;;8.40;30.02;99516.38;4243531;33;20000;-85
2021/12/26 10:17:14;;;;;;;;;;;;;;;8.56;29.71;99515.81;4253617;33;20038;-87
2021/12/26 10:19:44;;;;;;;;;;;;;;;7.49;31.05;99516.09;3807189;33;10011371;-87
2021/12/26 10:22:12;;;;;;;;;;;;;;;7.33;30.92;99513.16;4253624;33;20000;-85
2021/12/26 10:24:46;;;;;;;;;;;;;;;7.89;30.06;99511.00;4267938;33;20866;-87
2021/12/26 10:27:14;;;;;;;;;;;;;;;7.63;32.04;99513.00;4268872;33;20367;-84
2021/12/26 10:29:47;;;;;;;;;;;;;;;8.36;30.02;99503.38;4268847;33;20007;-85
2021/12/26 10:32:24;;;;;;;;;;;;;;;8.24;31.52;99497.97;4257940;33;19985;-87
2021/12/26 10:34:55;;;;;;;;;;;;;;;8.45;30.64;99501.84;4277220;33;19997;-84
2021/12/26 10:37:25;;;;;;;;;;;;;;;8.74;30.01;99499.78;4268797;33;20042;-90
2021/12/26 10:39:53;;;;;;;;;;;;;;;8.74;30.68;99494.62;4276921;33;19996;-87
2021/12/26 10:42:23;;;;;;;;;;;;;;;8.70;30.89;99493.69;4271297;33;20359;-85
2021/12/26 10:44:54;;;;;;;;;;;;;;;8.42;31.09;99492.31;4263455;33;20584;-92
2021/12/26 10:47:22;;;;;;;;;;;;;;;7.93;32.16;99497.34;4261016;33;19992;-87
2021/12/26 10:49:49;;;;;;;;;;;;;;;8.46;29.12;99490.69;4270580;33;20026;-89
2021/12/26 10:52:21;;;;;;;;;;;;;;;7.99;32.60;99498.31;4262516;33;20012;-89
2021/12/26 10:54:48;;;;;;;;;;;;;;;7.64;31.79;99503.56;4271480;33;20056;-86
2021/12/26 10:57:19;;;;;;;;;;;;;;;7.39;32.46;99508.16;4270260;33;20004;-90
2021/12/26 10:59:47;;;;;;;;;;;;;;;7.72;32.25;99496.88;4262627;33;20053;-87
2021/12/26 11:02:21;;;;;;;;;;;;;;;7.92;31.05;99499.91;4251249;33;20340;-86
2021/12/26 11:04:58;;;;;;;;;;;;;;;8.05;29.76;99498.44;4269502;33;20014;-85
2021/12/26 11:07:24;;;;;;;;;;;;;;;8.03;29.85;99492.38;4262840;33;19999;-88
2021/12/26 11:10:06;;;;;;;;;;;;;;;8.60;30.12;99500.41;4262658;33;19973;-86
2021/12/26 11:12:39;;;;;;;;;;;;;;;8.83;29.71;99495.66;4263281;33;20005;-88
2021/12/26 11:15:08;;;;;;;;;;;;;;;8.88;28.13;99492.31;4269321;33;20533;-87
2021/12/26 11:17:37;;;;;;;;;;;;;;;9.15;26.95;99487.56;4267018;33;20507;-90
2021/12/26 11:20:04;;;;;;;;;;;;;;;8.93;28.12;99485.50;4269203;33;20149;-85
2021/12/26 11:22:33;;;;;;;;;;;;;;;8.88;28.20;99484.56;4268374;33;20001;-85
2021/12/26 11:25:00;;;;;;;;;;;;;;;8.99;28.15;99486.47;4258826;33;19993;-85
2021/12/26 11:27:27;;;;;;;;;;;;;;;8.94;28.99;99497.56;4269099;33;20037;-83
2021/12/26 11:29:54;;;;;;;;;;;;;;;8.78;28.69;99497.31;4270577;33;19978;-82
2021/12/26 11:32:22;;;;;;;;;;;;;;;8.82;27.41;99480.16;4262945;33;20004;-83
2021/12/26 11:34:49;;;;;;;;;;;;;;;8.57;26.67;99481.44;4276919;33;20109;-86
2021/12/26 11:37:16;;;;;;;;;;;;;;;9.02;28.07;99480.47;4276440;33;20354;-83
2021/12/26 11:39:49;;;;;;;;;;;;;;;8.97;28.61;99487.31;4268076;33;20935;-85
2021/12/26 11:42:30;;;;;;;;;;;;;;;9.14;27.33;99491.03;4270893;33;20001;-87
2021/12/26 11:45:18;;;;;;;;;;;;;;;9.17;26.59;99485.91;4270588;33;19969;-81
2021/12/26 11:48:28;;;;;;;;;;;;;;;9.36;25.58;99496.53;4271034;33;20049;-81
2021/12/26 11:51:14;;;;;;;;;;;;;;;9.52;24.41;99498.50;4271669;33;19999;-84
2021/12/26 11:54:00;;;;;;;;;;;;;;;9.65;24.43;99497.81;4277705;33;20477;-82
2021/12/26 11:56:46;;;;;;;;;;;;;;;9.54;24.52;99496.81;4276864;33;20039;-85
2021/12/26 11:59:26;;;;;;;;;;;;;;;9.38;25.86;99505.16;4275429;33;20426;-85
2021/12/26 12:01:52;;;;;;;;;;;;;;;8.46;31.48;99503.59;4276625;33;19997;-82
2021/12/26 12:04:21;;;;;;;;;;;;;;;8.30;30.27;99508.41;4271860;33;19997;-81
2021/12/26 12:06:48;;;;;;;;;;;;;;;9.10;27.99;99504.72;4250391;33;19993;-85
2021/12/26 12:09:27;;;;;;;;;;;;;;;9.29;27.54;99503.31;4278565;33;19992;-83
2021/12/26 12:11:57;;;;;;;;;;;;;;;9.39;27.17;99512.06;4254510;33;19993;-82
2021/12/26 12:14:42;;;;;;;;;;;;;;;9.40;27.73;99513.81;4275363;33;20427;-77
2021/12/26 12:17:16;;;;;;;;;;;;;;;8.97;28.61;99513.13;4276421;33;19999;-82
2021/12/26 12:20:02;;;;;;;;;;;;;;;9.27;28.89;99513.59;4266712;33;20470;-83
2021/12/26 12:22:29;;;;;;;;;;;;;;;9.40;28.78;99508.63;4269547;33;20314;-82
2021/12/26 12:24:55;;;;;;;;;;;;;;;9.43;28.03;99511.28;4268200;33;20019;-84
2021/12/26 12:27:23;;;;;;;;;;;;;;;9.19;29.85;99507.47;4269105;33;19993;-84
2021/12/26 12:29:51;;;;;;;;;;;;;;;9.00;31.31;99510.59;4274817;33;20111;-82
2021/12/26 12:32:28;;;;;;;;;;;;;;;8.47;31.36;99505.31;4275893;33;20083;-82
2021/12/26 12:34:57;;;;;;;;;;;;;;;8.85;31.52;99509.47;4264504;33;20005;-83
2021/12/26 12:37:28;;;;;;;;;;;;;;;9.07;30.07;99500.38;4259085;33;20026;-80
2021/12/26 12:40:09;;;;;;;;;;;;;;;9.37;29.36;99500.84;4248384;33;20005;-85
2021/12/26 12:42:36;;;;;;;;;;;;;;;9.29;29.53;99493.84;4259118;33;19981;-82
2021/12/26 12:45:04;;;;;;;;;;;;;;;8.99;29.19;99493.34;4258505;33;19985;-85
2021/12/26 12:47:30;;;;;;;;;;;;;;;9.08;29.90;99480.59;4259417;33;19993;-80
2021/12/26 12:50:03;;;;;;;;;;;;;;;8.66;31.10;99481.59;4268424;33;19996;-81
2021/12/26 12:52:37;;;;;;;;;;;;;;;9.24;30.74;99468.78;4268492;33;20047;-81
2021/12/26 12:55:12;;;;;;;;;;;;;;;9.31;29.24;99474.06;4267621;33;19997;-78
2021/12/26 12:57:40;;;;;;;;;;;;;;;9.39;30.17;99470.75;4276620;33;19993;-80
2021/12/26 13:00:26;;;;;;;;;;;;;;;9.47;31.35;99469.13;4258403;33;19989;-81
2021/12/26 13:02:59;;;;;;;;;;;;;;;9.55;32.09;99464.94;4261864;33;20513;-78
2021/12/26 13:05:40;;;;;;;;;;;;;;;9.47;33.81;99463.97;4285371;33;20036;-79
2021/12/26 13:08:13;;;;;;;;;;;;;;;9.57;33.53;99455.47;4278997;33;20012;-80
2021/12/26 13:10:41;;;;;;;;;;;;;;;9.52;33.84;99452.84;4263544;33;20049;-80
2021/12/26 13:13:13;;;;;;;;;;;;;;;9.50;35.05;99451.94;4261562;33;19977;-77
2021/12/26 13:15:51;;;;;;;;;;;;;;;9.22;36.01;99442.97;4261239;33;20003;-78